sensor_id;sensor_type;location;lat;lon;timestamp;P1;durP1;ratioP1;P2;durP2;ratioP2
20890;SDS011;10605;52.968;8.844;2023-04-24T00:00:07;2.00;;;1.90;;
20890;SDS011;10605;52.968;8.844;2023-04-24T00:02:39;2.05;;;1.95;;
20890;SDS011;10605;52.968;8.844;2023-04-24T00:05:07;2.30;;;2.20;;
20890;SDS011;10605;52.968;8.844;2023-04-24T00:07:33;2.47;;;2.35;;
20890;SDS011;10605;52.968;8.844;2023-04-24T00:09:59;2.50;;;2.30;;
20890;SDS011;10605;52.968;8.844;2023-04-24T00:12:25;2.15;;;1.95;;
20890;SDS011;10605;52.968;8.844;2023-04-24T00:14:51;3.28;;;1.98;;
20890;SDS011;10605;52.968;8.844;2023-04-24T00:17:17;2.67;;;2.47;;
20890;SDS011;10605;52.968;8.844;2023-04-24T00:19:47;2.88;;;2.45;;
20890;SDS011;10605;52.968;8.844;2023-04-24T00:22:13;7.60;;;2.70;;
20890;SDS011;10605;52.968;8.844;2023-04-24T00:24:39;4.32;;;2.30;;
20890;SDS011;10605;52.968;8.844;2023-04-24T00:27:05;2.72;;;2.63;;
20890;SDS011;10605;52.968;8.844;2023-04-24T00:29:31;5.20;;;2.78;;
20890;SDS011;10605;52.968;8.844;2023-04-24T00:31:56;2.78;;;2.58;;
20890;SDS011;10605;52.968;8.844;2023-04-24T00:34:22;2.80;;;2.63;;
20890;SDS011;10605;52.968;8.844;2023-04-24T00:36:48;2.80;;;2.70;;
20890;SDS011;10605;52.968;8.844;2023-04-24T00:39:17;2.50;;;2.40;;
20890;SDS011;10605;52.968;8.844;2023-04-24T00:41:46;5.22;;;2.90;;
20890;SDS011;10605;52.968;8.844;2023-04-24T00:44:13;2.78;;;2.60;;
20890;SDS011;10605;52.968;8.844;2023-04-24T00:46:39;3.28;;;2.47;;
20890;SDS011;10605;52.968;8.844;2023-04-24T00:49:05;3.33;;;2.97;;
20890;SDS011;10605;52.968;8.844;2023-04-24T00:51:31;2.60;;;2.50;;
20890;SDS011;10605;52.968;8.844;2023-04-24T00:53:57;2.58;;;2.47;;
20890;SDS011;10605;52.968;8.844;2023-04-24T00:56:23;2.85;;;2.65;;
20890;SDS011;10605;52.968;8.844;2023-04-24T00:58:49;4.68;;;2.42;;
20890;SDS011;10605;52.968;8.844;2023-04-24T01:01:15;3.00;;;2.70;;
20890;SDS011;10605;52.968;8.844;2023-04-24T01:03:41;2.50;;;2.40;;
20890;SDS011;10605;52.968;8.844;2023-04-24T01:06:07;2.90;;;2.80;;
20890;SDS011;10605;52.968;8.844;2023-04-24T01:08:35;2.40;;;2.30;;
20890;SDS011;10605;52.968;8.844;2023-04-24T01:11:01;3.00;;;2.80;;
20890;SDS011;10605;52.968;8.844;2023-04-24T01:13:29;2.42;;;2.33;;
20890;SDS011;10605;52.968;8.844;2023-04-24T01:15:55;2.47;;;2.38;;
20890;SDS011;10605;52.968;8.844;2023-04-24T01:18:22;2.67;;;2.47;;
20890;SDS011;10605;52.968;8.844;2023-04-24T01:20:48;3.55;;;2.35;;
20890;SDS011;10605;52.968;8.844;2023-04-24T01:23:17;2.33;;;1.95;;
20890;SDS011;10605;52.968;8.844;2023-04-24T01:25:43;2.42;;;2.15;;
20890;SDS011;10605;52.968;8.844;2023-04-24T01:28:09;2.70;;;1.90;;
20890;SDS011;10605;52.968;8.844;2023-04-24T01:30:35;2.08;;;1.98;;
20890;SDS011;10605;52.968;8.844;2023-04-24T01:33:01;2.05;;;1.95;;
20890;SDS011;10605;52.968;8.844;2023-04-24T01:35:27;2.08;;;1.98;;
20890;SDS011;10605;52.968;8.844;2023-04-24T01:37:53;2.00;;;1.90;;
20890;SDS011;10605;52.968;8.844;2023-04-24T01:40:19;2.08;;;1.98;;
20890;SDS011;10605;52.968;8.844;2023-04-24T01:42:44;2.85;;;1.90;;
20890;SDS011;10605;52.968;8.844;2023-04-24T01:45:11;2.40;;;2.10;;
20890;SDS011;10605;52.968;8.844;2023-04-24T01:47:38;2.00;;;1.90;;
20890;SDS011;10605;52.968;8.844;2023-04-24T01:50:04;2.10;;;2.00;;
20890;SDS011;10605;52.968;8.844;2023-04-24T01:52:30;1.85;;;1.75;;
20890;SDS011;10605;52.968;8.844;2023-04-24T01:55:01;1.70;;;1.60;;
20890;SDS011;10605;52.968;8.844;2023-04-24T01:57:29;1.75;;;1.65;;
20890;SDS011;10605;52.968;8.844;2023-04-24T01:59:55;1.67;;;1.65;;
20890;SDS011;10605;52.968;8.844;2023-04-24T02:02:21;4.65;;;2.10;;
20890;SDS011;10605;52.968;8.844;2023-04-24T02:04:49;2.00;;;1.90;;
20890;SDS011;10605;52.968;8.844;2023-04-24T02:07:15;2.05;;;1.95;;
20890;SDS011;10605;52.968;8.844;2023-04-24T02:09:41;2.42;;;2.15;;
20890;SDS011;10605;52.968;8.844;2023-04-24T02:12:06;2.85;;;2.13;;
20890;SDS011;10605;52.968;8.844;2023-04-24T02:14:32;2.15;;;2.05;;
20890;SDS011;10605;52.968;8.844;2023-04-24T02:16:58;2.17;;;2.08;;
20890;SDS011;10605;52.968;8.844;2023-04-24T02:19:23;2.47;;;2.15;;
20890;SDS011;10605;52.968;8.844;2023-04-24T02:21:49;2.95;;;2.08;;
20890;SDS011;10605;52.968;8.844;2023-04-24T02:24:15;2.40;;;2.25;;
20890;SDS011;10605;52.968;8.844;2023-04-24T02:26:41;2.33;;;2.13;;
20890;SDS011;10605;52.968;8.844;2023-04-24T02:29:07;2.10;;;2.00;;
20890;SDS011;10605;52.968;8.844;2023-04-24T02:31:32;2.00;;;1.90;;
20890;SDS011;10605;52.968;8.844;2023-04-24T02:33:58;2.80;;;2.47;;
20890;SDS011;10605;52.968;8.844;2023-04-24T02:36:24;2.17;;;2.08;;
20890;SDS011;10605;52.968;8.844;2023-04-24T02:38:50;2.30;;;2.20;;
20890;SDS011;10605;52.968;8.844;2023-04-24T02:41:16;2.65;;;2.55;;
20890;SDS011;10605;52.968;8.844;2023-04-24T02:43:42;2.55;;;2.45;;
20890;SDS011;10605;52.968;8.844;2023-04-24T02:46:07;3.22;;;3.03;;
20890;SDS011;10605;52.968;8.844;2023-04-24T02:48:33;2.97;;;2.83;;
20890;SDS011;10605;52.968;8.844;2023-04-24T02:50:58;2.65;;;2.55;;
20890;SDS011;10605;52.968;8.844;2023-04-24T02:53:24;3.45;;;2.78;;
20890;SDS011;10605;52.968;8.844;2023-04-24T02:55:50;2.80;;;2.60;;
20890;SDS011;10605;52.968;8.844;2023-04-24T02:58:16;4.82;;;2.60;;
20890;SDS011;10605;52.968;8.844;2023-04-24T03:00:42;3.13;;;2.58;;
20890;SDS011;10605;52.968;8.844;2023-04-24T03:03:08;2.97;;;2.75;;
20890;SDS011;10605;52.968;8.844;2023-04-24T03:05:34;2.38;;;2.28;;
20890;SDS011;10605;52.968;8.844;2023-04-24T03:08:00;2.65;;;2.55;;
20890;SDS011;10605;52.968;8.844;2023-04-24T03:10:25;2.50;;;2.40;;
20890;SDS011;10605;52.968;8.844;2023-04-24T03:12:51;3.40;;;2.97;;
20890;SDS011;10605;52.968;8.844;2023-04-24T03:15:17;2.85;;;2.40;;
20890;SDS011;10605;52.968;8.844;2023-04-24T03:17:43;2.42;;;2.33;;
20890;SDS011;10605;52.968;8.844;2023-04-24T03:20:08;3.25;;;2.47;;
20890;SDS011;10605;52.968;8.844;2023-04-24T03:22:34;2.33;;;2.13;;
20890;SDS011;10605;52.968;8.844;2023-04-24T03:25:00;2.25;;;2.15;;
20890;SDS011;10605;52.968;8.844;2023-04-24T03:27:26;3.55;;;2.63;;
20890;SDS011;10605;52.968;8.844;2023-04-24T03:29:52;2.35;;;2.15;;
20890;SDS011;10605;52.968;8.844;2023-04-24T03:32:20;2.38;;;2.17;;
20890;SDS011;10605;52.968;8.844;2023-04-24T03:34:47;2.22;;;1.85;;
20890;SDS011;10605;52.968;8.844;2023-04-24T03:37:13;2.22;;;2.13;;
20890;SDS011;10605;52.968;8.844;2023-04-24T03:39:40;2.70;;;1.95;;
20890;SDS011;10605;52.968;8.844;2023-04-24T03:42:05;2.28;;;1.80;;
20890;SDS011;10605;52.968;8.844;2023-04-24T03:44:31;3.85;;;2.42;;
20890;SDS011;10605;52.968;8.844;2023-04-24T03:46:57;2.17;;;2.08;;
20890;SDS011;10605;52.968;8.844;2023-04-24T03:49:23;2.17;;;2.00;;
20890;SDS011;10605;52.968;8.844;2023-04-24T03:51:49;2.20;;;2.00;;
20890;SDS011;10605;52.968;8.844;2023-04-24T03:54:15;3.38;;;1.95;;
20890;SDS011;10605;52.968;8.844;2023-04-24T03:56:41;1.90;;;1.80;;
20890;SDS011;10605;52.968;8.844;2023-04-24T03:59:06;1.75;;;1.65;;
20890;SDS011;10605;52.968;8.844;2023-04-24T04:01:32;2.05;;;1.73;;
20890;SDS011;10605;52.968;8.844;2023-04-24T04:04:01;2.80;;;1.70;;
20890;SDS011;10605;52.968;8.844;2023-04-24T04:06:27;3.45;;;1.70;;
20890;SDS011;10605;52.968;8.844;2023-04-24T04:08:53;1.80;;;1.70;;
20890;SDS011;10605;52.968;8.844;2023-04-24T04:11:19;2.90;;;1.70;;
20890;SDS011;10605;52.968;8.844;2023-04-24T04:13:45;4.55;;;1.73;;
20890;SDS011;10605;52.968;8.844;2023-04-24T04:16:12;1.67;;;1.58;;
20890;SDS011;10605;52.968;8.844;2023-04-24T04:18:38;3.35;;;1.63;;
20890;SDS011;10605;52.968;8.844;2023-04-24T04:21:04;1.40;;;1.33;;
20890;SDS011;10605;52.968;8.844;2023-04-24T04:23:30;1.98;;;1.60;;
20890;SDS011;10605;52.968;8.844;2023-04-24T04:25:57;1.92;;;1.83;;
20890;SDS011;10605;52.968;8.844;2023-04-24T04:28:23;1.67;;;1.58;;
20890;SDS011;10605;52.968;8.844;2023-04-24T04:30:49;1.58;;;1.48;;
20890;SDS011;10605;52.968;8.844;2023-04-24T04:33:19;2.55;;;2.00;;
20890;SDS011;10605;52.968;8.844;2023-04-24T04:35:45;1.83;;;1.73;;
20890;SDS011;10605;52.968;8.844;2023-04-24T04:38:13;2.17;;;1.98;;
20890;SDS011;10605;52.968;8.844;2023-04-24T04:40:40;2.20;;;2.10;;
20890;SDS011;10605;52.968;8.844;2023-04-24T04:43:06;2.50;;;1.90;;
20890;SDS011;10605;52.968;8.844;2023-04-24T04:45:31;3.00;;;1.83;;
20890;SDS011;10605;52.968;8.844;2023-04-24T04:47:58;2.28;;;2.10;;
20890;SDS011;10605;52.968;8.844;2023-04-24T04:50:25;1.90;;;1.80;;
20890;SDS011;10605;52.968;8.844;2023-04-24T04:52:51;3.83;;;2.05;;
20890;SDS011;10605;52.968;8.844;2023-04-24T04:55:17;2.83;;;2.38;;
20890;SDS011;10605;52.968;8.844;2023-04-24T04:57:44;2.70;;;2.25;;
20890;SDS011;10605;52.968;8.844;2023-04-24T05:00:11;2.38;;;2.28;;
20890;SDS011;10605;52.968;8.844;2023-04-24T05:02:37;2.20;;;2.10;;
20890;SDS011;10605;52.968;8.844;2023-04-24T05:05:04;3.83;;;2.83;;
20890;SDS011;10605;52.968;8.844;2023-04-24T05:07:30;2.45;;;2.25;;
20890;SDS011;10605;52.968;8.844;2023-04-24T05:09:56;2.38;;;2.25;;
20890;SDS011;10605;52.968;8.844;2023-04-24T05:12:22;3.05;;;2.75;;
20890;SDS011;10605;52.968;8.844;2023-04-24T05:14:47;3.00;;;2.80;;
20890;SDS011;10605;52.968;8.844;2023-04-24T05:17:13;2.70;;;2.60;;
20890;SDS011;10605;52.968;8.844;2023-04-24T05:19:40;2.50;;;2.40;;
20890;SDS011;10605;52.968;8.844;2023-04-24T05:22:05;3.42;;;3.05;;
20890;SDS011;10605;52.968;8.844;2023-04-24T05:24:35;4.35;;;3.35;;
20890;SDS011;10605;52.968;8.844;2023-04-24T05:27:01;3.28;;;3.08;;
20890;SDS011;10605;52.968;8.844;2023-04-24T05:29:27;5.78;;;2.50;;
20890;SDS011;10605;52.968;8.844;2023-04-24T05:31:55;3.20;;;3.00;;
20890;SDS011;10605;52.968;8.844;2023-04-24T05:34:22;3.47;;;3.28;;
20890;SDS011;10605;52.968;8.844;2023-04-24T05:36:47;3.53;;;3.33;;
20890;SDS011;10605;52.968;8.844;2023-04-24T05:39:13;3.40;;;3.20;;
20890;SDS011;10605;52.968;8.844;2023-04-24T05:41:40;4.05;;;3.60;;
20890;SDS011;10605;52.968;8.844;2023-04-24T05:44:05;4.22;;;3.72;;
20890;SDS011;10605;52.968;8.844;2023-04-24T05:46:31;3.75;;;3.55;;
20890;SDS011;10605;52.968;8.844;2023-04-24T05:48:57;3.83;;;3.63;;
20890;SDS011;10605;52.968;8.844;2023-04-24T05:51:23;3.40;;;3.20;;
20890;SDS011;10605;52.968;8.844;2023-04-24T05:53:49;4.43;;;4.05;;
20890;SDS011;10605;52.968;8.844;2023-04-24T05:56:14;5.13;;;3.78;;
20890;SDS011;10605;52.968;8.844;2023-04-24T05:58:41;4.13;;;3.83;;
20890;SDS011;10605;52.968;8.844;2023-04-24T06:01:06;4.50;;;4.20;;
20890;SDS011;10605;52.968;8.844;2023-04-24T06:03:32;4.60;;;4.35;;
20890;SDS011;10605;52.968;8.844;2023-04-24T06:05:58;4.75;;;4.45;;
20890;SDS011;10605;52.968;8.844;2023-04-24T06:08:26;5.53;;;5.13;;
20890;SDS011;10605;52.968;8.844;2023-04-24T06:10:57;5.18;;;4.80;;
20890;SDS011;10605;52.968;8.844;2023-04-24T06:13:26;6.05;;;5.53;;
20890;SDS011;10605;52.968;8.844;2023-04-24T06:15:52;6.10;;;5.80;;
20890;SDS011;10605;52.968;8.844;2023-04-24T06:22:00;7.95;;;7.43;;
20890;SDS011;10605;52.968;8.844;2023-04-24T06:24:45;7.65;;;7.03;;
20890;SDS011;10605;52.968;8.844;2023-04-24T06:27:12;8.13;;;7.53;;
20890;SDS011;10605;52.968;8.844;2023-04-24T06:29:38;8.70;;;7.90;;
20890;SDS011;10605;52.968;8.844;2023-04-24T06:32:03;8.55;;;7.75;;
20890;SDS011;10605;52.968;8.844;2023-04-24T06:34:29;9.80;;;8.93;;
20890;SDS011;10605;52.968;8.844;2023-04-24T06:36:56;9.35;;;8.63;;
20890;SDS011;10605;52.968;8.844;2023-04-24T06:39:21;9.50;;;8.82;;
20890;SDS011;10605;52.968;8.844;2023-04-24T06:41:49;9.40;;;8.60;;
20890;SDS011;10605;52.968;8.844;2023-04-24T06:44:18;9.65;;;8.82;;
20890;SDS011;10605;52.968;8.844;2023-04-24T06:46:44;11.43;;;10.00;;
20890;SDS011;10605;52.968;8.844;2023-04-24T06:49:10;10.82;;;9.90;;
20890;SDS011;10605;52.968;8.844;2023-04-24T06:51:36;10.70;;;9.90;;
20890;SDS011;10605;52.968;8.844;2023-04-24T06:54:01;11.30;;;10.40;;
20890;SDS011;10605;52.968;8.844;2023-04-24T06:56:27;12.45;;;11.20;;
20890;SDS011;10605;52.968;8.844;2023-04-24T06:58:54;12.95;;;10.98;;
20890;SDS011;10605;52.968;8.844;2023-04-24T07:01:19;11.65;;;10.73;;
20890;SDS011;10605;52.968;8.844;2023-04-24T07:03:45;13.10;;;11.52;;
20890;SDS011;10605;52.968;8.844;2023-04-24T07:06:11;11.68;;;10.57;;
20890;SDS011;10605;52.968;8.844;2023-04-24T07:08:37;11.82;;;10.82;;
20890;SDS011;10605;52.968;8.844;2023-04-24T07:14:25;11.93;;;10.40;;
20890;SDS011;10605;52.968;8.844;2023-04-24T07:16:51;12.95;;;10.85;;
20890;SDS011;10605;52.968;8.844;2023-04-24T07:22:50;12.75;;;10.32;;
20890;SDS011;10605;52.968;8.844;2023-04-24T07:25:20;9.05;;;8.40;;
20890;SDS011;10605;52.968;8.844;2023-04-24T07:27:45;8.77;;;8.07;;
20890;SDS011;10605;52.968;8.844;2023-04-24T07:30:11;9.23;;;8.45;;
20890;SDS011;10605;52.968;8.844;2023-04-24T07:32:37;8.68;;;8.07;;
20890;SDS011;10605;52.968;8.844;2023-04-24T07:35:03;8.88;;;7.97;;
20890;SDS011;10605;52.968;8.844;2023-04-24T07:37:32;8.93;;;8.13;;
20890;SDS011;10605;52.968;8.844;2023-04-24T07:39:57;8.13;;;7.38;;
20890;SDS011;10605;52.968;8.844;2023-04-24T07:42:23;8.27;;;7.30;;
20890;SDS011;10605;52.968;8.844;2023-04-24T07:44:49;8.40;;;7.30;;
20890;SDS011;10605;52.968;8.844;2023-04-24T07:47:16;8.40;;;7.80;;
20890;SDS011;10605;52.968;8.844;2023-04-24T07:49:42;8.25;;;7.57;;
20890;SDS011;10605;52.968;8.844;2023-04-24T07:52:07;9.07;;;8.43;;
20890;SDS011;10605;52.968;8.844;2023-04-24T07:54:33;8.98;;;8.27;;
20890;SDS011;10605;52.968;8.844;2023-04-24T07:56:59;8.52;;;7.93;;
20890;SDS011;10605;52.968;8.844;2023-04-24T07:59:28;9.55;;;8.70;;
20890;SDS011;10605;52.968;8.844;2023-04-24T08:01:53;8.98;;;8.27;;
20890;SDS011;10605;52.968;8.844;2023-04-24T08:04:19;10.40;;;9.50;;
20890;SDS011;10605;52.968;8.844;2023-04-24T08:06:46;9.75;;;8.63;;
20890;SDS011;10605;52.968;8.844;2023-04-24T08:09:12;9.82;;;9.02;;
20890;SDS011;10605;52.968;8.844;2023-04-24T08:11:41;10.70;;;9.65;;
20890;SDS011;10605;52.968;8.844;2023-04-24T08:14:08;10.95;;;9.88;;
20890;SDS011;10605;52.968;8.844;2023-04-24T08:16:34;10.25;;;9.25;;
20890;SDS011;10605;52.968;8.844;2023-04-24T08:19:00;10.90;;;9.68;;
20890;SDS011;10605;52.968;8.844;2023-04-24T08:21:46;11.40;;;10.07;;
20890;SDS011;10605;52.968;8.844;2023-04-24T08:24:11;12.60;;;11.00;;
20890;SDS011;10605;52.968;8.844;2023-04-24T08:26:40;14.38;;;10.45;;
20890;SDS011;10605;52.968;8.844;2023-04-24T08:29:06;12.20;;;11.10;;
20890;SDS011;10605;52.968;8.844;2023-04-24T08:31:32;11.57;;;10.43;;
20890;SDS011;10605;52.968;8.844;2023-04-24T08:33:58;12.73;;;11.45;;
20890;SDS011;10605;52.968;8.844;2023-04-24T08:36:25;12.32;;;11.20;;
20890;SDS011;10605;52.968;8.844;2023-04-24T08:38:51;16.33;;;11.75;;
20890;SDS011;10605;52.968;8.844;2023-04-24T08:41:17;15.18;;;12.63;;
20890;SDS011;10605;52.968;8.844;2023-04-24T08:43:45;25.48;;;13.77;;
20890;SDS011;10605;52.968;8.844;2023-04-24T08:46:19;13.57;;;12.18;;
20890;SDS011;10605;52.968;8.844;2023-04-24T08:48:45;16.23;;;12.32;;
20890;SDS011;10605;52.968;8.844;2023-04-24T08:51:14;14.40;;;12.85;;
20890;SDS011;10605;52.968;8.844;2023-04-24T08:53:41;15.13;;;12.65;;
20890;SDS011;10605;52.968;8.844;2023-04-24T08:56:08;13.65;;;12.30;;
20890;SDS011;10605;52.968;8.844;2023-04-24T08:58:36;16.67;;;12.40;;
20890;SDS011;10605;52.968;8.844;2023-04-24T09:01:06;12.75;;;11.07;;
20890;SDS011;10605;52.968;8.844;2023-04-24T09:03:37;14.63;;;11.45;;
20890;SDS011;10605;52.968;8.844;2023-04-24T09:06:36;13.27;;;11.95;;
20890;SDS011;10605;52.968;8.844;2023-04-24T09:09:23;13.05;;;11.15;;
20890;SDS011;10605;52.968;8.844;2023-04-24T09:12:38;13.20;;;11.93;;
20890;SDS011;10605;52.968;8.844;2023-04-24T09:15:18;13.45;;;11.88;;
20890;SDS011;10605;52.968;8.844;2023-04-24T09:17:45;13.27;;;11.95;;
20890;SDS011;10605;52.968;8.844;2023-04-24T09:20:11;13.80;;;12.52;;
20890;SDS011;10605;52.968;8.844;2023-04-24T09:22:37;16.35;;;12.13;;
20890;SDS011;10605;52.968;8.844;2023-04-24T09:25:04;12.80;;;11.70;;
20890;SDS011;10605;52.968;8.844;2023-04-24T09:27:34;13.70;;;12.30;;
20890;SDS011;10605;52.968;8.844;2023-04-24T09:30:00;13.00;;;11.80;;
20890;SDS011;10605;52.968;8.844;2023-04-24T09:32:27;13.93;;;11.80;;
20890;SDS011;10605;52.968;8.844;2023-04-24T09:35:07;12.15;;;11.05;;
20890;SDS011;10605;52.968;8.844;2023-04-24T09:37:38;11.75;;;10.73;;
20890;SDS011;10605;52.968;8.844;2023-04-24T09:40:12;11.73;;;10.77;;
20890;SDS011;10605;52.968;8.844;2023-04-24T09:42:46;11.32;;;10.20;;
20890;SDS011;10605;52.968;8.844;2023-04-24T09:45:19;12.82;;;11.52;;
20890;SDS011;10605;52.968;8.844;2023-04-24T09:47:51;11.52;;;9.77;;
20890;SDS011;10605;52.968;8.844;2023-04-24T09:50:18;10.88;;;9.95;;
20890;SDS011;10605;52.968;8.844;2023-04-24T09:52:55;11.32;;;10.07;;
20890;SDS011;10605;52.968;8.844;2023-04-24T09:55:22;11.75;;;10.43;;
20890;SDS011;10605;52.968;8.844;2023-04-24T09:57:52;11.07;;;10.15;;
20890;SDS011;10605;52.968;8.844;2023-04-24T10:00:31;9.95;;;9.15;;
20890;SDS011;10605;52.968;8.844;2023-04-24T10:02:58;9.50;;;8.57;;
20890;SDS011;10605;52.968;8.844;2023-04-24T10:05:27;8.65;;;8.05;;
20890;SDS011;10605;52.968;8.844;2023-04-24T10:08:03;8.77;;;7.93;;
20890;SDS011;10605;52.968;8.844;2023-04-24T10:10:34;8.70;;;7.90;;
20890;SDS011;10605;52.968;8.844;2023-04-24T10:13:04;8.27;;;7.57;;
20890;SDS011;10605;52.968;8.844;2023-04-24T10:15:31;8.00;;;7.32;;
20890;SDS011;10605;52.968;8.844;2023-04-24T10:17:58;8.07;;;6.93;;
20890;SDS011;10605;52.968;8.844;2023-04-24T10:20:25;8.65;;;7.55;;
20890;SDS011;10605;52.968;8.844;2023-04-24T10:22:54;8.30;;;7.80;;
20890;SDS011;10605;52.968;8.844;2023-04-24T10:25:24;9.20;;;8.48;;
20890;SDS011;10605;52.968;8.844;2023-04-24T10:27:53;9.30;;;8.50;;
20890;SDS011;10605;52.968;8.844;2023-04-24T10:30:24;8.60;;;7.90;;
20890;SDS011;10605;52.968;8.844;2023-04-24T10:32:51;8.80;;;8.00;;
20890;SDS011;10605;52.968;8.844;2023-04-24T10:35:22;8.82;;;7.93;;
20890;SDS011;10605;52.968;8.844;2023-04-24T10:37:56;8.45;;;7.75;;
20890;SDS011;10605;52.968;8.844;2023-04-24T10:40:56;7.90;;;7.38;;
20890;SDS011;10605;52.968;8.844;2023-04-24T10:43:33;7.38;;;6.88;;
20890;SDS011;10605;52.968;8.844;2023-04-24T10:46:03;7.00;;;6.50;;
20890;SDS011;10605;52.968;8.844;2023-04-24T10:48:31;6.22;;;5.72;;
20890;SDS011;10605;52.968;8.844;2023-04-24T10:50:59;6.72;;;6.32;;
20890;SDS011;10605;52.968;8.844;2023-04-24T10:53:30;6.53;;;6.13;;
20890;SDS011;10605;52.968;8.844;2023-04-24T10:58:40;6.75;;;6.05;;
20890;SDS011;10605;52.968;8.844;2023-04-24T11:01:11;6.10;;;5.47;;
20890;SDS011;10605;52.968;8.844;2023-04-24T11:03:55;5.70;;;5.30;;
20890;SDS011;10605;52.968;8.844;2023-04-24T11:06:32;5.85;;;5.38;;
20890;SDS011;10605;52.968;8.844;2023-04-24T11:09:09;6.20;;;5.80;;
20890;SDS011;10605;52.968;8.844;2023-04-24T11:11:38;5.10;;;4.68;;
20890;SDS011;10605;52.968;8.844;2023-04-24T11:14:10;5.45;;;5.05;;
20890;SDS011;10605;52.968;8.844;2023-04-24T11:16:42;5.07;;;4.78;;
20890;SDS011;10605;52.968;8.844;2023-04-24T11:21:59;4.65;;;4.38;;
20890;SDS011;10605;52.968;8.844;2023-04-24T11:27:05;3.50;;;3.30;;
20890;SDS011;10605;52.968;8.844;2023-04-24T11:29:51;3.28;;;3.08;;
20890;SDS011;10605;52.968;8.844;2023-04-24T11:32:29;3.03;;;2.83;;
20890;SDS011;10605;52.968;8.844;2023-04-24T11:37:26;4.10;;;3.88;;
20890;SDS011;10605;52.968;8.844;2023-04-24T11:39:59;4.50;;;4.20;;
20890;SDS011;10605;52.968;8.844;2023-04-24T11:42:25;4.45;;;4.10;;
20890;SDS011;10605;52.968;8.844;2023-04-24T11:44:54;4.13;;;3.92;;
20890;SDS011;10605;52.968;8.844;2023-04-24T11:47:27;4.50;;;4.20;;
20890;SDS011;10605;52.968;8.844;2023-04-24T11:49:59;4.82;;;4.40;;
20890;SDS011;10605;52.968;8.844;2023-04-24T11:52:28;4.30;;;4.00;;
20890;SDS011;10605;52.968;8.844;2023-04-24T11:54:57;4.03;;;3.83;;
20890;SDS011;10605;52.968;8.844;2023-04-24T11:57:24;4.35;;;4.05;;
20890;SDS011;10605;52.968;8.844;2023-04-24T11:59:53;4.15;;;3.72;;
20890;SDS011;10605;52.968;8.844;2023-04-24T12:02:20;4.75;;;3.58;;
20890;SDS011;10605;52.968;8.844;2023-04-24T12:04:49;4.43;;;4.07;;
20890;SDS011;10605;52.968;8.844;2023-04-24T12:07:15;3.30;;;3.00;;
20890;SDS011;10605;52.968;8.844;2023-04-24T12:09:49;2.80;;;2.60;;
20890;SDS011;10605;52.968;8.844;2023-04-24T12:12:27;2.90;;;2.80;;
20890;SDS011;10605;52.968;8.844;2023-04-24T12:14:54;3.08;;;2.88;;
20890;SDS011;10605;52.968;8.844;2023-04-24T12:17:30;3.10;;;2.90;;
20890;SDS011;10605;52.968;8.844;2023-04-24T12:19:57;2.50;;;2.40;;
20890;SDS011;10605;52.968;8.844;2023-04-24T12:22:28;2.90;;;2.70;;
20890;SDS011;10605;52.968;8.844;2023-04-24T12:25:15;2.85;;;2.70;;
20890;SDS011;10605;52.968;8.844;2023-04-24T12:27:41;2.97;;;2.88;;
20890;SDS011;10605;52.968;8.844;2023-04-24T12:30:12;6.32;;;2.80;;
20890;SDS011;10605;52.968;8.844;2023-04-24T12:32:46;3.25;;;3.05;;
20890;SDS011;10605;52.968;8.844;2023-04-24T12:35:13;3.80;;;3.50;;
20890;SDS011;10605;52.968;8.844;2023-04-24T12:37:41;3.00;;;2.88;;
20890;SDS011;10605;52.968;8.844;2023-04-24T12:40:13;4.00;;;3.80;;
20890;SDS011;10605;52.968;8.844;2023-04-24T12:45:18;3.30;;;3.10;;
20890;SDS011;10605;52.968;8.844;2023-04-24T12:47:48;3.63;;;3.42;;
20890;SDS011;10605;52.968;8.844;2023-04-24T12:50:15;3.15;;;2.95;;
20890;SDS011;10605;52.968;8.844;2023-04-24T12:52:44;3.33;;;3.13;;
20890;SDS011;10605;52.968;8.844;2023-04-24T12:55:10;3.72;;;3.53;;
20890;SDS011;10605;52.968;8.844;2023-04-24T12:57:37;4.18;;;3.88;;
20890;SDS011;10605;52.968;8.844;2023-04-24T13:00:07;3.50;;;3.30;;
20890;SDS011;10605;52.968;8.844;2023-04-24T13:02:35;3.65;;;3.33;;
20890;SDS011;10605;52.968;8.844;2023-04-24T13:05:01;3.83;;;3.63;;
20890;SDS011;10605;52.968;8.844;2023-04-24T13:07:30;4.15;;;3.75;;
20890;SDS011;10605;52.968;8.844;2023-04-24T13:09:56;4.32;;;3.95;;
20890;SDS011;10605;52.968;8.844;2023-04-24T13:12:22;4.82;;;4.28;;
20890;SDS011;10605;52.968;8.844;2023-04-24T13:14:52;4.90;;;4.60;;
20890;SDS011;10605;52.968;8.844;2023-04-24T13:17:18;6.88;;;5.18;;
20890;SDS011;10605;52.968;8.844;2023-04-24T13:19:44;5.75;;;5.15;;
20890;SDS011;10605;52.968;8.844;2023-04-24T13:22:11;5.72;;;5.20;;
20890;SDS011;10605;52.968;8.844;2023-04-24T13:24:37;6.93;;;6.32;;
20890;SDS011;10605;52.968;8.844;2023-04-24T13:27:08;8.52;;;7.50;;
20890;SDS011;10605;52.968;8.844;2023-04-24T13:29:37;12.38;;;8.07;;
20890;SDS011;10605;52.968;8.844;2023-04-24T13:32:02;7.93;;;7.20;;
20890;SDS011;10605;52.968;8.844;2023-04-24T13:34:31;6.20;;;5.55;;
20890;SDS011;10605;52.968;8.844;2023-04-24T13:37:02;5.30;;;4.95;;
20890;SDS011;10605;52.968;8.844;2023-04-24T13:39:32;7.88;;;5.53;;
20890;SDS011;10605;52.968;8.844;2023-04-24T13:41:58;5.65;;;5.20;;
20890;SDS011;10605;52.968;8.844;2023-04-24T13:44:33;7.15;;;6.43;;
20890;SDS011;10605;52.968;8.844;2023-04-24T13:46:59;7.03;;;6.40;;
20890;SDS011;10605;52.968;8.844;2023-04-24T13:49:25;8.55;;;6.13;;
20890;SDS011;10605;52.968;8.844;2023-04-24T13:51:51;6.55;;;6.05;;
20890;SDS011;10605;52.968;8.844;2023-04-24T13:54:18;7.82;;;6.57;;
20890;SDS011;10605;52.968;8.844;2023-04-24T13:56:44;9.20;;;6.40;;
20890;SDS011;10605;52.968;8.844;2023-04-24T13:59:11;7.43;;;6.38;;
20890;SDS011;10605;52.968;8.844;2023-04-24T14:01:40;8.35;;;6.22;;
20890;SDS011;10605;52.968;8.844;2023-04-24T14:04:06;7.93;;;6.38;;
20890;SDS011;10605;52.968;8.844;2023-04-24T14:06:31;12.70;;;6.50;;
20890;SDS011;10605;52.968;8.844;2023-04-24T14:08:57;9.43;;;6.03;;
20890;SDS011;10605;52.968;8.844;2023-04-24T14:11:23;6.63;;;6.03;;
20890;SDS011;10605;52.968;8.844;2023-04-24T14:13:48;8.85;;;6.05;;
20890;SDS011;10605;52.968;8.844;2023-04-24T14:16:14;13.95;;;6.35;;
20890;SDS011;10605;52.968;8.844;2023-04-24T14:18:40;8.82;;;6.00;;
20890;SDS011;10605;52.968;8.844;2023-04-24T14:21:06;8.30;;;5.88;;
20890;SDS011;10605;52.968;8.844;2023-04-24T14:23:32;9.68;;;6.00;;
20890;SDS011;10605;52.968;8.844;2023-04-24T14:25:58;10.60;;;6.15;;
20890;SDS011;10605;52.968;8.844;2023-04-24T14:28:24;8.30;;;5.13;;
20890;SDS011;10605;52.968;8.844;2023-04-24T14:30:51;10.43;;;5.43;;
20890;SDS011;10605;52.968;8.844;2023-04-24T14:33:16;8.73;;;5.85;;
20890;SDS011;10605;52.968;8.844;2023-04-24T14:35:42;9.32;;;5.80;;
20890;SDS011;10605;52.968;8.844;2023-04-24T14:38:08;9.48;;;5.55;;
20890;SDS011;10605;52.968;8.844;2023-04-24T14:40:35;11.32;;;5.20;;
20890;SDS011;10605;52.968;8.844;2023-04-24T14:43:01;5.82;;;4.95;;
20890;SDS011;10605;52.968;8.844;2023-04-24T14:45:27;9.23;;;4.97;;
20890;SDS011;10605;52.968;8.844;2023-04-24T14:47:52;7.10;;;4.65;;
20890;SDS011;10605;52.968;8.844;2023-04-24T14:50:19;9.93;;;5.07;;
20890;SDS011;10605;52.968;8.844;2023-04-24T14:52:45;5.30;;;4.75;;
20890;SDS011;10605;52.968;8.844;2023-04-24T14:55:11;5.97;;;4.35;;
20890;SDS011;10605;52.968;8.844;2023-04-24T14:57:37;5.93;;;4.90;;
20890;SDS011;10605;52.968;8.844;2023-04-24T15:00:04;12.85;;;4.70;;
20890;SDS011;10605;52.968;8.844;2023-04-24T15:02:35;11.07;;;5.00;;
20890;SDS011;10605;52.968;8.844;2023-04-24T15:05:04;9.68;;;4.90;;
20890;SDS011;10605;52.968;8.844;2023-04-24T15:07:31;5.63;;;5.10;;
20890;SDS011;10605;52.968;8.844;2023-04-24T15:09:56;9.75;;;4.60;;